createdAt,value
2017-11-25T00:01:52.459Z,1.20
2017-11-25T00:04:20.758Z,1.17
2017-11-25T00:06:48.320Z,1.30
2017-11-25T00:09:15.851Z,1.50
2017-11-25T00:11:43.374Z,1.50
2017-11-25T00:14:10.948Z,1.20
2017-11-25T00:16:39.286Z,2.10
2017-11-25T00:19:07.602Z,1.20
2017-11-25T00:21:35.147Z,1.27
2017-11-25T00:24:02.709Z,1.10
2017-11-25T00:26:30.245Z,1.30
2017-11-25T00:28:57.799Z,1.40
2017-11-25T00:31:25.336Z,1.50
2017-11-25T00:33:53.655Z,1.48
2017-11-25T00:36:21.207Z,1.20
2017-11-25T00:38:48.766Z,1.20
2017-11-25T00:41:16.313Z,1.40
2017-11-25T00:43:43.849Z,1.00
2017-11-25T00:46:11.407Z,1.92
2017-11-25T00:48:38.978Z,1.20
2017-11-25T00:51:06.562Z,1.17
2017-11-25T00:53:34.122Z,1.15
2017-11-25T00:56:01.655Z,1.02
2017-11-25T00:58:29.198Z,1.20
2017-11-25T01:00:56.859Z,1.30
2017-11-25T01:03:24.402Z,1.25
2017-11-25T01:05:51.949Z,1.33
2017-11-25T01:08:20.250Z,1.30
2017-11-25T01:10:47.810Z,1.30
2017-11-25T01:13:15.335Z,1.30
2017-11-25T01:15:43.675Z,1.62
2017-11-25T01:18:12.034Z,1.30
2017-11-25T01:20:39.617Z,1.50
2017-11-25T01:23:07.256Z,1.10
2017-11-25T01:25:34.840Z,1.35
2017-11-25T01:28:02.438Z,1.12
2017-11-25T01:30:30.014Z,1.70
2017-11-25T01:32:58.371Z,1.50
2017-11-25T01:35:25.966Z,1.10
2017-11-25T01:37:53.545Z,1.40
2017-11-25T01:40:21.150Z,1.30
2017-11-25T01:42:48.742Z,1.10
2017-11-25T01:45:17.096Z,1.60
2017-11-25T01:47:44.683Z,2.10
2017-11-25T01:50:12.286Z,1.30
2017-11-25T01:52:39.890Z,1.15
2017-11-25T01:55:07.509Z,1.50
2017-11-25T01:57:35.069Z,1.62
2017-11-25T02:00:04.235Z,1.30
2017-11-25T02:02:31.826Z,1.40
2017-11-25T02:04:59.414Z,1.48
2017-11-25T02:07:27.029Z,1.37
2017-11-25T02:09:54.604Z,1.20
2017-11-25T02:12:22.213Z,1.87
2017-11-25T02:14:49.800Z,1.50
2017-11-25T02:17:17.426Z,1.52
2017-11-25T02:19:45.021Z,1.20
2017-11-25T02:22:12.626Z,1.20
2017-11-25T02:24:41.011Z,1.40
2017-11-25T02:27:09.358Z,1.40
2017-11-25T02:29:36.955Z,1.17
2017-11-25T02:32:04.562Z,1.37
2017-11-25T02:34:32.190Z,1.40
2017-11-25T02:36:59.774Z,1.23
2017-11-25T02:39:27.388Z,1.20
2017-11-25T02:41:54.978Z,1.50
2017-11-25T02:44:22.594Z,1.30
2017-11-25T02:46:50.952Z,1.45
2017-11-25T02:49:18.550Z,1.30
2017-11-25T02:51:46.149Z,1.37
2017-11-25T02:54:13.748Z,2.95
2017-11-25T02:56:42.112Z,1.67
2017-11-25T02:59:09.707Z,1.70
2017-11-25T03:01:37.315Z,1.33
2017-11-25T03:04:04.901Z,1.80
2017-11-25T03:06:32.505Z,1.48
2017-11-25T03:09:00.098Z,1.77
2017-11-25T03:11:27.678Z,1.90
2017-11-25T03:13:55.278Z,1.45
2017-11-25T03:16:22.865Z,1.98
2017-11-25T03:18:50.505Z,1.52
2017-11-25T03:21:18.093Z,1.73
2017-11-25T03:23:45.684Z,3.25
2017-11-25T03:26:13.264Z,2.20
2017-11-25T03:28:41.621Z,2.50
2017-11-25T03:31:09.207Z,1.90
2017-11-25T03:33:37.550Z,2.00
2017-11-25T03:36:05.153Z,1.80
2017-11-25T03:38:32.743Z,2.20
2017-11-25T03:41:00.337Z,1.98
2017-11-25T03:43:27.916Z,2.35
2017-11-25T03:45:56.289Z,2.05
2017-11-25T03:48:23.880Z,2.40
2017-11-25T03:50:51.470Z,3.25
2017-11-25T03:53:19.046Z,2.60
2017-11-25T03:55:46.685Z,3.17
2017-11-25T03:58:14.246Z,3.35
2017-11-25T04:00:41.860Z,3.60
2017-11-25T04:03:10.206Z,4.03
2017-11-25T04:05:37.822Z,3.70
2017-11-25T04:08:05.393Z,3.90
2017-11-25T04:10:33.000Z,3.65
2017-11-25T04:13:01.374Z,4.60
2017-11-25T04:15:28.960Z,3.70
2017-11-25T04:17:56.577Z,4.37
2017-11-25T04:20:24.138Z,3.45
2017-11-25T04:22:51.742Z,1.52
2017-11-25T04:25:20.099Z,1.30
2017-11-25T04:27:47.702Z,0.90
2017-11-25T04:30:15.302Z,1.00
2017-11-25T04:32:42.886Z,0.80
2017-11-25T04:35:10.495Z,0.85
2017-11-25T04:37:38.083Z,0.90
2017-11-25T04:40:05.654Z,0.80
2017-11-25T04:42:33.264Z,0.50
2017-11-25T04:45:00.866Z,0.70
2017-11-25T04:47:28.455Z,0.70
2017-11-25T04:49:56.057Z,0.60
2017-11-25T05:05:25.837Z,0.50
2017-11-25T05:07:54.172Z,0.60
2017-11-25T05:10:21.754Z,0.60
2017-11-25T05:12:50.153Z,0.70
2017-11-25T05:15:18.502Z,0.60
2017-11-25T05:17:46.117Z,0.60
2017-11-25T05:20:13.700Z,0.60
2017-11-25T05:22:41.312Z,0.70
2017-11-25T05:25:09.669Z,0.55
2017-11-25T05:27:37.301Z,0.60
2017-11-25T05:30:04.891Z,0.60
2017-11-25T05:32:34.001Z,0.60
2017-11-25T05:35:02.382Z,0.60
2017-11-25T05:37:30.751Z,0.50
2017-11-25T05:39:59.123Z,0.60
2017-11-25T05:42:26.702Z,0.60
2017-11-25T05:44:55.061Z,0.60
2017-11-25T05:47:22.636Z,0.70
2017-11-25T05:49:50.978Z,0.60
2017-11-25T05:52:18.573Z,0.77
2017-11-25T05:54:46.947Z,0.60
2017-11-25T05:57:14.531Z,0.88
2017-11-25T05:59:42.909Z,0.70
2017-11-25T06:02:11.274Z,0.75
2017-11-25T06:04:39.621Z,2.10
2017-11-25T06:07:07.249Z,0.60
2017-11-25T06:09:34.845Z,0.65
2017-11-25T06:12:02.461Z,0.80
2017-11-25T06:14:30.038Z,0.60
2017-11-25T06:16:57.645Z,0.68
2017-11-25T06:19:25.252Z,1.05
2017-11-25T06:21:52.925Z,0.70
2017-11-25T06:24:20.525Z,0.70
2017-11-25T06:26:48.107Z,0.77
2017-11-25T06:29:16.448Z,0.70
2017-11-25T06:31:44.049Z,0.90
2017-11-25T06:34:12.379Z,0.90
2017-11-25T06:36:39.978Z,0.80
2017-11-25T06:39:08.344Z,0.80
2017-11-25T06:41:35.952Z,1.00
2017-11-25T06:44:03.541Z,0.90
2017-11-25T06:46:31.913Z,0.80
2017-11-25T06:49:00.250Z,0.98
2017-11-25T06:51:27.856Z,0.90
2017-11-25T06:53:55.451Z,0.90
2017-11-25T06:56:23.047Z,0.80
2017-11-25T06:58:50.619Z,0.77
2017-11-25T07:01:18.228Z,0.60
2017-11-25T07:03:45.815Z,0.60
2017-11-25T07:06:13.435Z,0.70
2017-11-25T07:08:41.041Z,0.70
2017-11-25T07:11:09.417Z,0.90
2017-11-25T07:13:37.017Z,0.80
2017-11-25T07:16:05.359Z,1.73
2017-11-25T07:18:32.970Z,0.80
2017-11-25T07:21:00.562Z,0.85
2017-11-25T07:23:29.870Z,0.70
2017-11-25T07:25:57.478Z,0.70
2017-11-25T07:28:25.096Z,0.60
2017-11-25T07:30:53.450Z,0.88
2017-11-25T07:33:21.053Z,0.90
2017-11-25T07:35:48.655Z,0.90
2017-11-25T07:38:16.254Z,0.62
2017-11-25T07:40:44.588Z,0.98
2017-11-25T07:43:12.180Z,1.00
2017-11-25T07:45:39.788Z,0.73
2017-11-25T07:48:07.385Z,0.90
2017-11-25T07:50:34.986Z,0.70
2017-11-25T07:53:03.346Z,0.70
2017-11-25T07:55:30.934Z,0.73
2017-11-25T07:57:58.546Z,0.80
2017-11-25T08:00:26.145Z,0.90
2017-11-25T08:02:54.493Z,0.80
2017-11-25T08:05:22.113Z,0.68
2017-11-25T08:07:49.698Z,0.80
2017-11-25T08:10:17.254Z,0.90
2017-11-25T08:12:44.775Z,1.58
2017-11-25T08:15:13.085Z,0.90
2017-11-25T08:17:40.606Z,0.95
2017-11-25T08:20:08.922Z,0.70
2017-11-25T08:22:36.512Z,0.80
2017-11-25T08:25:04.077Z,0.80
2017-11-25T08:27:31.605Z,0.60
2017-11-25T08:29:59.172Z,0.60
2017-11-25T08:32:26.725Z,0.70
2017-11-25T08:34:54.250Z,0.82
2017-11-25T08:37:21.811Z,0.70
2017-11-25T08:39:49.341Z,0.98
2017-11-25T08:42:16.913Z,0.70
2017-11-25T08:44:44.471Z,0.85
2017-11-25T08:47:11.994Z,0.68
2017-11-25T08:49:40.321Z,0.70
2017-11-25T08:52:08.217Z,0.60
2017-11-25T08:54:35.756Z,0.60
2017-11-25T08:57:03.275Z,0.50
2017-11-25T08:59:31.446Z,0.60
2017-11-25T09:01:59.739Z,0.65
2017-11-25T09:04:27.293Z,0.50
2017-11-25T09:06:55.646Z,0.65
2017-11-25T09:09:23.953Z,0.80
2017-11-25T09:11:51.514Z,0.80
2017-11-25T09:14:19.062Z,0.73
2017-11-25T09:16:46.611Z,0.60
2017-11-25T09:19:14.912Z,0.80
2017-11-25T09:21:42.681Z,0.70
2017-11-25T09:24:11.054Z,0.60
2017-11-25T09:26:38.930Z,0.60
2017-11-25T09:29:06.943Z,0.65
2017-11-25T09:31:34.495Z,0.50
2017-11-25T09:34:02.102Z,0.80
2017-11-25T09:36:30.487Z,0.70
2017-11-25T09:38:58.062Z,0.90
2017-11-25T09:41:25.938Z,0.80
2017-11-25T09:43:53.482Z,0.60
2017-11-25T09:46:21.079Z,0.70
2017-11-25T09:48:48.831Z,0.70
2017-11-25T09:51:16.546Z,0.80
2017-11-25T09:53:45.068Z,0.82
2017-11-25T09:56:12.601Z,1.00
2017-11-25T09:58:40.195Z,0.60
2017-11-25T10:01:07.738Z,0.90
2017-11-25T10:03:35.302Z,0.60
2017-11-25T10:06:02.859Z,0.70
2017-11-25T10:08:30.406Z,0.73
2017-11-25T10:10:57.957Z,0.85
2017-11-25T10:13:25.495Z,0.60
2017-11-25T10:15:53.012Z,0.62
2017-11-25T10:18:21.340Z,0.70
2017-11-25T10:20:48.879Z,0.70
2017-11-25T10:23:18.072Z,0.80
2017-11-25T10:25:45.594Z,1.37
2017-11-25T10:28:13.145Z,0.80
2017-11-25T10:30:40.692Z,0.60
2017-11-25T10:33:08.264Z,0.60
2017-11-25T10:35:35.811Z,0.60
2017-11-25T10:38:03.358Z,0.60
2017-11-25T10:40:30.911Z,0.40
2017-11-25T10:42:58.447Z,0.40
2017-11-25T10:45:26.007Z,0.50
2017-11-25T10:47:53.537Z,0.40
2017-11-25T10:50:21.092Z,0.60
2017-11-25T10:52:48.626Z,0.70
2017-11-25T10:55:16.172Z,0.60
2017-11-25T10:57:43.706Z,0.80
2017-11-25T11:00:11.254Z,0.60
2017-11-25T11:02:38.787Z,0.68
2017-11-25T11:05:06.327Z,0.70
2017-11-25T11:07:33.870Z,0.75
2017-11-25T11:10:01.407Z,0.60
2017-11-25T11:12:28.970Z,1.15
2017-11-25T11:14:56.499Z,0.70
2017-11-25T11:17:24.848Z,0.70
2017-11-25T11:19:52.378Z,0.50
2017-11-25T11:22:19.925Z,0.70
2017-11-25T11:24:47.452Z,0.85
2017-11-25T11:27:15.770Z,0.70
2017-11-25T11:29:43.306Z,0.80
2017-11-25T11:32:11.658Z,0.85
2017-11-25T11:34:39.208Z,0.80
2017-11-25T11:37:06.759Z,0.52
2017-11-25T11:39:34.313Z,0.70
2017-11-25T11:42:01.851Z,0.60
2017-11-25T11:44:29.410Z,0.70
2017-11-25T11:46:56.943Z,0.60
2017-11-25T11:49:25.255Z,0.73
2017-11-25T11:51:52.812Z,0.60
2017-11-25T11:54:20.373Z,0.80
2017-11-25T11:56:47.907Z,0.82
2017-11-25T11:59:16.228Z,0.80
2017-11-25T12:01:43.771Z,0.80
2017-11-25T12:04:11.335Z,0.70
2017-11-25T12:06:38.897Z,0.90
2017-11-25T12:09:06.474Z,0.70
2017-11-25T12:11:34.049Z,1.00
2017-11-25T12:14:01.595Z,0.60
2017-11-25T12:16:29.153Z,0.60
2017-11-25T12:18:56.686Z,0.80
2017-11-25T12:21:24.248Z,0.70
2017-11-25T12:23:51.790Z,0.82
2017-11-25T12:26:20.113Z,0.50
2017-11-25T12:28:47.649Z,0.90
2017-11-25T12:31:15.237Z,0.90
2017-11-25T12:33:42.764Z,0.52
2017-11-25T12:36:10.319Z,0.90
2017-11-25T12:38:37.847Z,0.90
2017-11-25T12:41:06.166Z,0.60
2017-11-25T12:43:33.726Z,0.68
2017-11-25T12:46:01.258Z,0.70
2017-11-25T12:48:28.793Z,0.50
2017-11-25T12:50:57.138Z,0.85
2017-11-25T12:53:24.671Z,0.65
2017-11-25T12:55:52.224Z,0.73
2017-11-25T12:58:19.750Z,0.70
2017-11-25T13:00:48.054Z,0.70
2017-11-25T13:03:15.626Z,0.80
2017-11-25T13:05:43.190Z,0.73
2017-11-25T13:08:10.739Z,0.90
2017-11-25T13:10:38.265Z,1.00
2017-11-25T13:13:06.580Z,0.80
2017-11-25T13:15:34.131Z,0.95
2017-11-25T13:18:01.690Z,0.90
2017-11-25T13:20:29.227Z,0.62
2017-11-25T13:22:57.540Z,0.73
2017-11-25T13:25:25.090Z,0.60
2017-11-25T13:27:52.623Z,0.60
2017-11-25T13:30:20.935Z,0.70
2017-11-25T13:32:48.465Z,0.70
2017-11-25T13:35:16.012Z,0.70
2017-11-25T13:37:43.580Z,0.60
2017-11-25T13:40:11.146Z,0.60
2017-11-25T13:42:38.670Z,0.60
2017-11-25T13:45:06.217Z,0.50
2017-11-25T13:47:33.760Z,0.65
2017-11-25T13:50:01.307Z,0.50
2017-11-25T13:52:28.863Z,0.55
2017-11-25T13:54:56.409Z,0.40
2017-11-25T13:57:24.718Z,0.60
2017-11-25T13:59:52.244Z,0.50
2017-11-25T14:02:20.557Z,0.60
2017-11-25T14:04:48.103Z,0.60
2017-11-25T14:07:15.645Z,0.50
2017-11-25T14:09:43.933Z,0.52
2017-11-25T14:12:11.492Z,1.05
2017-11-25T14:14:39.066Z,0.55
2017-11-25T14:17:06.641Z,0.90
2017-11-25T14:19:34.203Z,0.60
2017-11-25T14:22:01.746Z,0.70
2017-11-25T14:24:29.289Z,0.80
2017-11-25T14:26:56.826Z,0.70
2017-11-25T14:29:24.378Z,0.90
2017-11-25T14:31:52.706Z,0.90
2017-11-25T14:34:20.251Z,1.33
2017-11-25T14:36:47.791Z,0.80
2017-11-25T14:39:15.341Z,0.70
2017-11-25T14:41:42.907Z,0.80
2017-11-25T14:44:10.457Z,0.90
2017-11-25T14:46:38.012Z,0.88
2017-11-25T14:49:05.542Z,0.93
2017-11-25T14:51:33.869Z,0.93
2017-11-25T14:54:01.399Z,0.77
2017-11-25T14:56:28.943Z,1.23
2017-11-25T14:58:57.275Z,0.98
2017-11-25T15:01:24.903Z,0.90
2017-11-25T15:03:52.438Z,1.90
2017-11-25T15:06:19.993Z,0.90
2017-11-25T15:08:48.279Z,0.90
2017-11-25T15:11:15.824Z,0.90
2017-11-25T15:13:44.140Z,1.05
2017-11-25T15:16:11.716Z,1.10
2017-11-25T15:18:39.252Z,1.35
2017-11-25T15:21:06.809Z,0.90
2017-11-25T15:23:34.357Z,1.12
2017-11-25T15:26:01.898Z,0.80
2017-11-25T15:28:30.195Z,0.80
2017-11-25T15:30:57.767Z,0.88
2017-11-25T15:33:25.290Z,2.37
2017-11-25T15:35:53.619Z,1.30
2017-11-25T15:38:21.166Z,0.93
2017-11-25T15:40:48.731Z,0.80
2017-11-25T15:43:16.285Z,1.37
2017-11-25T15:45:43.819Z,0.70
2017-11-25T15:48:12.145Z,0.70
2017-11-25T15:50:39.693Z,0.88
2017-11-25T15:53:07.276Z,0.85
2017-11-25T15:55:35.625Z,0.80
2017-11-25T15:58:03.185Z,1.00
2017-11-25T16:00:30.756Z,0.77
2017-11-25T16:02:59.053Z,0.80
2017-11-25T16:05:26.614Z,0.80
2017-11-25T16:07:54.168Z,0.95
2017-11-25T16:10:21.714Z,0.75
2017-11-25T16:12:49.272Z,0.80
2017-11-25T16:15:16.814Z,0.70
2017-11-25T16:17:44.355Z,0.70
2017-11-25T16:20:11.877Z,0.80
2017-11-25T16:22:39.433Z,0.70
2017-11-25T16:25:07.055Z,0.90
2017-11-25T16:27:34.618Z,0.70
2017-11-25T16:30:02.174Z,1.00
2017-11-25T16:32:29.718Z,0.90
2017-11-25T16:34:57.261Z,0.80
2017-11-25T16:37:25.567Z,0.70
2017-11-25T16:39:53.090Z,0.80
2017-11-25T16:42:21.390Z,0.70
2017-11-25T16:44:48.954Z,0.75
2017-11-25T16:47:16.506Z,1.30
2017-11-25T16:49:44.058Z,1.25
2017-11-25T16:52:12.365Z,0.90
2017-11-25T16:54:39.934Z,1.10
2017-11-25T16:57:07.482Z,1.00
2017-11-25T16:59:35.033Z,1.10
2017-11-25T17:02:02.574Z,1.15
2017-11-25T17:04:30.915Z,1.40
2017-11-25T17:06:58.463Z,1.50
2017-11-25T17:09:25.995Z,1.60
2017-11-25T17:11:53.559Z,1.60
2017-11-25T17:14:21.095Z,1.98
2017-11-25T17:16:48.657Z,1.60
2017-11-25T17:19:16.187Z,1.10
2017-11-25T17:21:43.747Z,1.35
2017-11-25T17:24:12.066Z,0.90
2017-11-25T17:26:39.662Z,3.67
2017-11-25T17:29:07.198Z,1.10
2017-11-25T17:31:34.755Z,1.70
2017-11-25T17:34:02.326Z,1.60
2017-11-25T17:36:29.879Z,1.20
2017-11-25T17:38:57.426Z,1.50
2017-11-25T17:41:24.975Z,1.45
2017-11-25T17:43:52.540Z,1.20
2017-11-25T17:46:20.089Z,1.77
2017-11-25T17:48:47.662Z,1.77
2017-11-25T17:51:15.211Z,2.28
2017-11-25T17:53:42.759Z,2.47
2017-11-25T17:56:11.052Z,3.00
2017-11-25T17:58:39.768Z,2.97
2017-11-25T18:01:07.323Z,2.70
2017-11-25T18:03:34.914Z,3.72
2017-11-25T18:06:03.387Z,3.47
2017-11-25T18:08:30.927Z,4.10
2017-11-25T18:10:58.478Z,5.80
2017-11-25T18:13:26.347Z,6.60
2017-11-25T18:15:53.894Z,6.60
2017-11-25T18:18:21.417Z,7.62
2017-11-25T18:20:48.992Z,7.20
2017-11-25T18:23:17.294Z,6.62
2017-11-25T18:25:44.852Z,8.52
2017-11-25T18:28:12.403Z,9.80
2017-11-25T18:30:39.947Z,9.40
2017-11-25T18:33:08.250Z,11.27
2017-11-25T18:35:35.814Z,9.60
2017-11-25T18:38:03.359Z,11.57
2017-11-25T18:40:30.890Z,12.20
2017-11-25T18:43:00.131Z,13.20
2017-11-25T18:45:27.698Z,14.23
2017-11-25T18:47:55.254Z,12.30
2017-11-25T18:50:22.897Z,13.70
2017-11-25T18:52:50.455Z,14.05
2017-11-25T18:55:18.021Z,14.20
2017-11-25T18:57:45.596Z,15.20
2017-11-25T19:00:13.137Z,15.48
2017-11-25T19:02:40.671Z,14.87
2017-11-25T19:05:09.000Z,15.32
2017-11-25T19:07:36.532Z,14.43
2017-11-25T19:10:04.086Z,14.40
2017-11-25T19:12:32.386Z,14.70
2017-11-25T19:14:59.943Z,15.77
2017-11-25T19:17:27.502Z,14.23
2017-11-25T19:19:55.073Z,12.40
2017-11-25T19:22:22.624Z,9.68
2017-11-25T19:24:50.168Z,14.57
2017-11-25T19:27:17.731Z,13.80
2017-11-25T19:29:45.925Z,13.98
2017-11-25T19:32:13.490Z,13.75
2017-11-25T19:34:41.195Z,12.45
2017-11-25T19:37:09.532Z,13.75
2017-11-25T19:39:37.091Z,13.05
2017-11-25T19:42:04.662Z,15.10
2017-11-25T19:44:32.195Z,15.52
2017-11-25T19:46:59.970Z,16.08
2017-11-25T19:49:27.514Z,13.18
2017-11-25T19:51:55.834Z,14.32
2017-11-25T19:54:23.383Z,14.35
2017-11-25T19:56:50.937Z,13.90
2017-11-25T19:59:18.481Z,14.95
2017-11-25T20:01:46.066Z,15.23
2017-11-25T20:04:13.632Z,13.62
2017-11-25T20:06:41.172Z,12.93
2017-11-25T20:09:08.726Z,12.43
2017-11-25T20:11:36.277Z,13.23
2017-11-25T20:14:03.814Z,11.63
2017-11-25T20:16:32.137Z,11.65
2017-11-25T20:18:59.676Z,12.40
2017-11-25T20:21:27.243Z,11.25
2017-11-25T20:23:54.795Z,12.80
2017-11-25T20:26:22.357Z,11.50
2017-11-25T20:28:49.906Z,11.85
2017-11-25T20:31:17.504Z,11.65
2017-11-25T20:33:45.034Z,12.80
2017-11-25T20:36:12.627Z,12.00
2017-11-25T20:38:40.169Z,11.77
2017-11-25T20:41:07.709Z,11.75
2017-11-25T20:43:35.284Z,11.82
2017-11-25T20:46:02.857Z,10.63
2017-11-25T20:48:30.433Z,7.55
2017-11-25T20:50:58.017Z,7.25
2017-11-25T20:53:25.567Z,9.35
2017-11-25T20:55:53.130Z,8.70
2017-11-25T20:58:20.690Z,10.95
2017-11-25T21:00:48.269Z,9.35
2017-11-25T21:03:16.642Z,9.38
2017-11-25T21:05:45.192Z,9.82
2017-11-25T21:08:12.741Z,9.73
2017-11-25T21:10:40.310Z,10.95
2017-11-25T21:13:07.886Z,11.23
2017-11-25T21:15:35.438Z,10.30
2017-11-25T21:18:02.974Z,11.20
2017-11-25T21:20:30.542Z,11.05
2017-11-25T21:22:58.118Z,10.27
2017-11-25T21:25:25.683Z,8.43
2017-11-25T21:27:53.243Z,10.85
2017-11-25T21:30:20.804Z,10.77
2017-11-25T21:32:48.387Z,11.77
2017-11-25T21:35:15.924Z,10.63
2017-11-25T21:37:43.496Z,9.77
2017-11-25T21:40:11.050Z,11.25
2017-11-25T21:42:38.609Z,10.48
2017-11-25T21:45:06.138Z,9.95
2017-11-25T21:47:33.682Z,11.32
2017-11-25T21:50:01.234Z,11.35
2017-11-25T21:52:28.793Z,10.88
2017-11-25T21:54:56.358Z,10.35
2017-11-25T21:57:23.917Z,10.77
2017-11-25T21:59:51.497Z,10.07
2017-11-25T22:02:19.051Z,8.85
2017-11-25T22:04:46.622Z,9.50
2017-11-25T22:07:14.185Z,8.77
2017-11-25T22:09:41.744Z,8.73
2017-11-25T22:12:09.296Z,11.43
2017-11-25T22:14:36.846Z,9.65
2017-11-25T22:17:04.383Z,9.35
2017-11-25T22:19:31.938Z,9.43
2017-11-25T22:21:59.485Z,9.30
2017-11-25T22:24:27.042Z,10.07
2017-11-25T22:26:56.509Z,7.28
2017-11-25T22:29:24.050Z,7.97
2017-11-25T22:31:51.610Z,7.95
2017-11-25T22:34:19.157Z,8.73
2017-11-25T22:36:46.751Z,9.48
2017-11-25T22:39:14.310Z,7.90
2017-11-25T22:41:41.849Z,8.55
2017-11-25T22:44:09.407Z,8.60
2017-11-25T22:46:36.926Z,8.20
2017-11-25T22:49:05.234Z,9.48
2017-11-25T22:51:32.763Z,6.43
2017-11-25T22:54:00.298Z,7.55
2017-11-25T22:56:27.864Z,7.30
2017-11-25T22:58:56.189Z,7.00
2017-11-25T23:01:23.749Z,5.70
2017-11-25T23:03:51.316Z,5.68
2017-11-25T23:06:18.853Z,5.35
2017-11-25T23:08:46.399Z,5.43
2017-11-25T23:11:13.946Z,5.20
2017-11-25T23:13:42.256Z,5.07
2017-11-25T23:16:09.825Z,4.90
2017-11-25T23:18:40.317Z,4.40
2017-11-25T23:21:08.638Z,3.85
2017-11-25T23:23:36.205Z,3.22
2017-11-25T23:26:04.542Z,3.75
2017-11-25T23:28:32.089Z,3.50
2017-11-25T23:30:59.610Z,3.28
2017-11-25T23:33:27.158Z,3.42
2017-11-25T23:35:54.694Z,3.92
2017-11-25T23:38:22.997Z,3.83
2017-11-25T23:40:50.584Z,3.22
2017-11-25T23:43:18.252Z,2.83
2017-11-25T23:45:45.777Z,2.15
2017-11-25T23:48:13.309Z,2.95
2017-11-25T23:50:41.659Z,3.30
2017-11-25T23:53:09.196Z,2.60
2017-11-25T23:55:36.735Z,2.70
2017-11-25T23:58:04.266Z,2.37
